Latest Weather Observations for Bunbury

IDW60801

Issued at 8:23 pm WST Friday 20 July 2018 (issued every 10 minutes, with the page automatically refreshed every 10 minutes)

About weather observations | Map of weather stations | Latest weather observations for WA | Other Formats
Station Details ID: 009965 Name: BUNBURY Lat: -33.36 Lon: 115.64 Height: 5.2 m
Data from the previous 72 hours. | See also: Recent months at Bunbury
Date/Time
WST
Temp
°C
App
Temp
°C
Dew
Point
°C
Rel
Hum
%
Delta-T
°C
Wind Press
QNH
hPa
Press
MSL
hPa
Rain since
9am
mm
Dir  Spd
km/h
Gust
km/h
Spd
kts
Gust
kts
20/08:00pm 17.2 15.7 14.3 83 1.7 NNW 15 24 8 13 1010.6 1010.6 2.2
20/07:30pm 17.1 14.7 13.8 81 1.9 NW 19 30 10 16 1010.7 1010.7 2.2
20/07:00pm 17.2 14.9 14.1 82 1.8 NW 19 33 10 18 1010.7 1010.7 2.2
20/06:30pm 17.1 16.0 14.2 83 1.7 NNW 13 22 7 12 1010.4 1010.4 2.2
20/06:00pm 16.9 15.3 13.8 82 1.8 NNW 15 22 8 12 1010.4 1010.4 2.2
20/05:30pm 16.5 14.9 14.0 85 1.4 NNW 15 24 8 13 1010.5 1010.5 2.2
20/05:00pm 16.3 14.0 14.1 87 1.3 NNW 19 33 10 18 1010.8 1010.8 2.2
20/04:30pm 16.6 16.0 14.6 88 1.1 NNW 11 17 6 9 1011.0 1011.0 2.2
20/04:00pm 16.3 14.1 14.3 88 1.1 NNW 19 32 10 17 1011.0 1011.0 2.2
20/03:30pm 16.2 13.1 14.6 90 0.9 NNW 24 37 13 20 1011.1 1011.1 2.2
20/03:00pm 15.9 14.2 14.6 92 0.7 NW 17 24 9 13 1011.1 1011.1 2.2
20/02:30pm 15.4 11.6 13.6 89 1.0 WNW 26 46 14 25 1011.3 1011.3 1.6
20/02:15pm 16.6 12.4 13.5 82 1.7 NW 28 50 15 27 1011.3 1011.3 0.6
20/02:00pm 17.2 15.0 13.3 78 2.2 NNW 17 35 9 19 1010.8 1010.8 0.4
20/01:30pm 18.3 13.9 13.0 71 3.0 NNW 28 41 15 22 1011.3 1011.3 0.4
20/01:08pm 18.3 14.1 13.4 73 2.8 NNW 28 46 15 25 1011.3 1011.3 0.4
20/01:00pm 18.3 14.1 13.6 74 2.7 NNW 28 43 15 23 1011.6 1011.6 0.4
20/12:30pm 17.9 14.1 13.6 76 2.4 N 26 39 14 21 1012.0 1012.0 0.4
20/12:00pm 16.9 13.7 13.0 78 2.2 N 22 35 12 19 1012.5 1012.5 0.4
20/11:30am 16.3 12.3 11.9 75 2.4 N 24 33 13 18 1013.1 1013.1 0.4
20/11:00am 15.9 11.9 11.7 76 2.3 N 24 43 13 23 1013.7 1013.7 0.4
20/10:30am 15.3 11.4 12.2 82 1.7 N 24 39 13 21 1014.1 1014.0 0.4
20/10:00am 14.4 10.6 12.4 88 1.1 N 24 39 13 21 1014.3 1014.2 0.4
20/09:57am 14.2 9.6 12.2 88 1.1 N 28 48 15 26 1014.4 1014.3 0.4
20/09:30am 13.2 9.7 10.9 86 1.2 N 20 32 11 17 1014.6 1014.5 0.2
20/09:00am 12.9 8.2 10.6 86 1.2 N 26 37 14 20 1014.6 1014.5 0.4
20/08:30am 13.1 8.5 9.5 79 1.8 N 24 37 13 20 1014.6 1014.5 0.4
20/08:00am 13.2 8.7 8.7 74 2.3 N 22 39 12 21 1014.9 1014.8 0.4
20/07:30am 12.6 9.7 8.3 75 2.1 NNE 13 24 7 13 1015.0 1014.9 0.4
20/07:00am 12.4 8.7 8.1 75 2.1 N 17 30 9 16 1014.8 1014.7 0.4
20/06:30am 13.0 8.3 7.7 70 2.6 NNE 22 32 12 17 1014.5 1014.4 0.2
20/06:00am 12.4 8.6 7.5 72 2.4 NNE 17 32 9 17 1014.7 1014.6 0.2
20/05:30am 12.1 8.6 7.4 73 2.3 NNE 15 24 8 13 1015.1 1015.0 0.2
20/05:00am 11.6 8.1 7.3 75 2.1 NNE 15 24 8 13 1015.6 1015.5 0.2
20/04:30am 10.4 8.1 7.3 81 1.5 NE 9 15 5 8 1015.9 1015.9 0.2
20/04:00am 10.2 8.0 7.8 85 1.2 NE 9 15 5 8 1016.3 1016.3 0.2
20/03:30am 8.8 6.8 6.9 88 0.9 NE 7 9 4 5 1016.7 1016.7 0.2
20/03:00am 7.6 5.9 5.7 88 0.9 NE 4 6 2 3 1017.2 1017.2 0.2
20/02:30am 7.3 5.1 5.4 88 0.8 NE 6 7 3 4 1017.7 1017.7 0.2
20/02:00am 7.3 5.2 5.6 89 0.8 NE 6 9 3 5 1018.3 1018.3 0.2
20/01:30am 6.9 4.7 5.4 90 0.7 NE 6 9 3 5 1018.5 1018.5 0.2
20/01:00am 5.9 4.3 4.4 90 0.6 NNE 2 6 1 3 1019.0 1019.0 0.2
20/12:30am 6.3 5.1 4.6 89 0.7 CALM 0 2 0 1 1019.0 1019.0 0.2
20/12:00am 6.8 5.7 5.1 89 0.7 CALM 0 0 0 0 1019.3 1019.3 0.2
 
Date/Time
WST
Temp
°C
App
Temp
°C
Dew
Point
°C
Rel
Hum
%
Delta-T
°C
Wind Press
QNH
hPa
Press
MSL
hPa
Rain since
9am
mm
Dir  Spd
km/h
Gust
km/h
Spd
kts
Gust
kts
19/11:30pm 6.8 4.6 5.1 89 0.7 ENE 6 7 3 4 1019.7 1019.7 0.2
19/11:00pm 6.6 4.3 4.8 88 0.8 ENE 6 7 3 4 1020.4 1020.4 0.2
19/10:30pm 6.8 4.9 5.0 88 0.8 E 4 6 2 3 1020.9 1020.9 0.2
19/10:00pm 7.8 6.8 5.8 87 0.9 CALM 0 0 0 0 1021.3 1021.3 0.2
19/09:30pm 7.9 5.8 5.7 86 1.0 E 6 7 3 4 1021.5 1021.5 0.2
19/09:00pm 8.0 6.7 5.8 86 1.0 ENE 2 4 1 2 1021.9 1021.9 0.2
19/08:30pm 8.5 6.5 6.1 85 1.1 E 6 6 3 3 1021.9 1021.9 0.2
19/08:00pm 8.9 6.8 6.5 85 1.1 E 7 9 4 5 1021.8 1021.8 0.2
19/07:30pm 9.6 8.9 7.0 84 1.2 CALM 0 0 0 0 1022.0 1022.0 0.2
19/07:00pm 9.5 8.7 6.4 81 1.4 CALM 0 0 0 0 1022.2 1022.2 0.2
19/06:30pm 10.1 9.1 5.7 74 2.0 CALM 0 0 0 0 1022.0 1022.0 0.0
19/06:00pm 10.9 10.0 5.9 71 2.3 CALM 0 2 0 1 1021.8 1021.8 0.0
19/05:30pm 13.1 11.6 6.7 65 3.1 NW 4 6 2 3 1021.9 1021.9 0.0
19/05:00pm 14.6 13.0 6.2 57 4.0 NNE 4 6 2 3 1021.5 1021.5 0.0
19/04:30pm 15.2 13.2 6.2 55 4.3 NNE 6 9 3 5 1021.5 1021.5 0.0
19/04:00pm 15.4 12.8 5.9 53 4.5 N 9 13 5 7 1021.7 1021.7 0.0
19/03:30pm 15.5 12.8 5.4 51 4.8 N 9 15 5 8 1021.7 1021.7 0.0
19/03:00pm 15.8 12.4 6.0 52 4.7 NNW 13 17 7 9 1021.9 1021.9 0.0
19/02:30pm 16.7 14.6 6.8 52 4.9 NNW 7 13 4 7 1021.8 1021.8 0.0
19/02:00pm 16.5 14.3 5.2 47 5.4 ENE 6 13 3 7 1022.3 1022.3 0.0
19/01:30pm 16.4 14.5 4.8 46 5.5 NNE 4 9 2 5 1022.6 1022.6 0.0
19/01:00pm 15.5 13.1 4.3 47 5.2 ESE 6 11 3 6 1022.6 1022.6 0.0
19/12:30pm 15.5 12.7 5.1 50 4.9 E 9 15 5 8 1022.9 1022.9 0.0
19/12:00pm 15.6 12.9 5.5 51 4.8 ENE 9 15 5 8 1023.4 1023.4 0.0
19/11:30am 15.2 12.0 4.9 50 4.8 ENE 11 17 6 9 1024.0 1024.0 0.0
19/11:00am 15.1 12.2 4.8 50 4.8 E 9 17 5 9 1024.2 1024.2 0.0
19/10:30am 14.8 12.8 6.9 59 3.9 ESE 7 13 4 7 1024.4 1024.4 0.0
19/10:00am 13.9 12.5 7.2 64 3.3 E 4 6 2 3 1024.7 1024.7 0.0
19/09:30am 12.9 12.9 9.9 82 1.5 CALM 0 0 0 0 1024.5 1024.5 0.0
19/09:00am 10.8 10.6 9.1 89 0.8 CALM 0 4 0 2 1024.1 1024.1 0.2
19/08:30am 8.3 7.6 6.9 91 0.6 CALM 0 0 0 0 1024.1 1024.1 0.2
19/08:00am 7.3 6.0 6.1 92 0.5 ESE 2 4 1 2 1023.8 1023.8 0.2
19/07:30am 6.0 4.0 4.6 91 0.6 ESE 4 7 2 4 1023.7 1023.7 0.2
19/07:00am 6.5 5.4 5.1 91 0.6 CALM 0 6 0 3 1023.7 1023.7 0.2
19/06:30am 6.5 5.4 5.1 91 0.6 CALM 0 4 0 2 1023.4 1023.4 0.2
19/06:00am 6.3 4.8 4.9 91 0.6 SE 2 7 1 4 1023.0 1023.0 0.2
19/05:30am 5.4 3.3 3.9 90 0.6 E 4 6 2 3 1022.8 1022.8 0.2
19/05:00am 6.1 4.9 4.6 90 0.6 CALM 0 2 0 1 1022.3 1022.3 0.2
19/04:30am 6.2 4.6 4.7 90 0.6 ESE 2 4 1 2 1022.3 1022.3 0.2
19/04:00am 6.6 5.1 5.1 90 0.7 E 2 4 1 2 1022.4 1022.4 0.2
19/03:30am 6.1 4.9 4.4 89 0.7 CALM 0 0 0 0 1022.9 1022.9 0.2
19/03:00am 6.2 5.0 4.4 88 0.8 CALM 0 0 0 0 1022.9 1022.9 0.2
19/02:30am 6.7 5.5 4.5 86 1.0 CALM 0 0 0 0 1022.5 1022.5 0.2
19/02:00am 6.9 5.7 4.4 84 1.1 CALM 0 0 0 0 1022.3 1022.3 0.2
19/01:30am 7.6 6.0 4.6 81 1.3 SSW 2 4 1 2 1021.8 1021.8 0.2
19/01:00am 8.9 7.4 4.9 76 1.8 S 2 4 1 2 1020.9 1020.9 0.2
19/12:30am 9.8 7.7 5.6 75 1.9 SSE 6 7 3 4 1021.0 1021.0 0.2
19/12:00am 10.1 8.1 6.3 77 1.8 SSE 6 7 3 4 1021.2 1021.2 0.2
 
Date/Time
WST
Temp
°C
App
Temp
°C
Dew
Point
°C
Rel
Hum
%
Delta-T
°C
Wind Press
QNH
hPa
Press
MSL
hPa
Rain since
9am
mm
Dir  Spd
km/h
Gust
km/h
Spd
kts
Gust
kts
18/11:30pm 10.8 10.2 7.3 79 1.7 CALM 0 0 0 0 1022.0 1022.0 0.2
18/11:00pm 11.2 10.2 7.3 77 1.9 S 2 4 1 2 1022.0 1022.0 0.2
18/10:30pm 11.3 9.6 7.4 77 1.9 S 6 7 3 4 1021.9 1021.9 0.2
18/10:00pm 11.8 10.1 7.7 76 2.0 S 6 6 3 3 1021.7 1021.7 0.2
18/09:30pm 11.9 10.3 8.0 77 1.9 S 6 7 3 4 1021.5 1021.5 0.2
18/09:00pm 12.3 10.6 8.2 76 2.0 S 7 11 4 6 1021.3 1021.3 0.2
18/08:30pm 12.6 11.0 8.7 77 1.9 S 7 9 4 5 1020.9 1020.9 0.2
18/08:00pm 13.2 11.6 8.9 75 2.2 S 7 9 4 5 1020.5 1020.5 0.2
18/07:30pm 13.7 11.4 9.0 73 2.4 SSW 11 13 6 7 1020.1 1020.1 0.2
18/07:00pm 14.0 11.3 8.8 71 2.6 SSW 13 19 7 10 1019.5 1019.5 0.2
18/06:30pm 14.2 12.1 9.6 74 2.4 SSW 11 17 6 9 1019.1 1019.1 0.2
18/06:00pm 14.4 13.4 10.4 77 2.1 SSW 6 9 3 5 1018.6 1018.6 0.2
18/05:30pm 14.5 13.5 11.1 80 1.8 SW 7 11 4 6 1018.3 1018.3 0.2
18/05:00pm 14.5 14.2 11.3 81 1.7 SW 4 7 2 4 1018.0 1018.0 0.2
18/04:30pm 14.6 14.3 11.6 82 1.6 SW 4 7 2 4 1017.7 1017.7 0.2
18/04:00pm 14.6 12.6 11.4 81 1.7 SW 13 19 7 10 1017.6 1017.6 0.2
18/03:30pm 14.6 12.7 11.9 84 1.5 SW 13 19 7 10 1017.5 1017.5 0.2
18/03:00pm 15.5 15.1 13.0 85 1.4 W 7 13 4 7 1017.2 1017.2 0.2
18/02:30pm 14.9 14.3 12.4 85 1.4 W 7 13 4 7 1017.0 1017.0 0.2
18/02:00pm 15.1 13.8 12.4 84 1.5 W 11 17 6 9 1017.0 1017.0 0.2
18/01:30pm 14.3 11.1 11.3 82 1.6 WSW 19 33 10 18 1017.1 1017.1 0.2
18/01:00pm 15.3 12.3 11.9 80 1.8 SW 19 28 10 15 1017.0 1017.0 0.2
18/12:30pm 13.9 10.7 11.4 85 1.3 W 19 28 10 15 1017.1 1017.1 0.2
18/12:00pm 14.0 12.1 11.7 86 1.2 W 13 22 7 12 1017.5 1017.5 0.2
18/11:30am 14.9 13.0 11.9 82 1.6 SW 13 24 7 13 1017.6 1017.6 0.0
18/11:00am 14.4 11.7 11.6 83 1.5 WSW 17 26 9 14 1017.6 1017.6 0.0
18/10:30am 15.6 11.8 11.2 75 2.4 SW 22 33 12 18 1017.3 1017.3 0.0
18/10:00am 15.5 13.0 10.9 74 2.4 WSW 15 28 8 15 1017.0 1017.0 0.0
18/09:30am 15.8 13.0 11.2 74 2.5 SW 17 26 9 14 1016.7 1016.7 0.0
18/09:00am 16.7 13.1 9.9 64 3.6 W 19 28 10 15 1016.0 1016.0 1.8
18/08:30am 15.5 11.6 9.4 67 3.1 WSW 20 28 11 15 1015.9 1015.9 1.8
18/08:00am 14.0 12.2 12.2 89 1.0 WSW 13 20 7 11 1015.7 1015.6 1.8
18/07:30am 13.4 12.3 11.8 90 0.9 W 9 17 5 9 1015.4 1015.3 1.8
18/07:00am 13.6 12.1 11.8 89 1.0 W 11 24 6 13 1015.4 1015.3 1.6
18/06:30am 13.7 10.3 11.4 86 1.2 W 20 43 11 23 1015.0 1014.9 0.6
18/06:00am 14.5 11.2 9.7 73 2.5 W 17 28 9 15 1014.8 1014.7 0.2
18/05:30am 15.4 10.1 8.4 63 3.5 W 26 46 14 25 1014.6 1014.5 0.2
18/05:00am 15.7 11.8 9.6 67 3.2 WNW 20 33 11 18 1014.1 1014.0 0.2
18/04:30am 15.6 11.7 9.5 67 3.2 W 20 32 11 17 1014.1 1014.0 0.0
18/04:00am 15.4 11.7 9.5 68 3.0 W 19 26 10 14 1014.1 1014.0 0.0
18/03:30am 14.9 11.1 9.7 71 2.7 W 20 32 11 17 1014.3 1014.2 0.0
18/03:00am 15.2 11.0 9.8 70 2.8 WNW 22 35 12 19 1014.4 1014.3 0.0
18/02:30am 14.8 9.9 8.5 66 3.2 WNW 24 43 13 23 1014.5 1014.4 0.0
18/02:00am 14.9 10.7 9.7 71 2.7 WNW 22 32 12 17 1014.6 1014.5 0.0
18/01:47am 14.9 9.6 9.9 72 2.6 W 28 52 15 28 1014.8 1014.7 0.0
18/01:30am 15.9 11.0 7.1 56 4.3 WNW 22 35 12 19 1014.5 1014.4 0.0
18/01:00am 15.7 10.7 8.0 60 3.9 W 24 35 13 19 1014.6 1014.5 0.0
18/12:30am 15.6 10.7 8.6 63 3.6 W 24 39 13 21 1014.7 1014.6 0.0
18/12:00am 14.8 10.7 10.0 73 2.5 WNW 22 37 12 20 1014.9 1014.8 0.0
 
Date/Time
WST
Temp
°C
App
Temp
°C
Dew
Point
°C
Rel
Hum
%
Delta-T
°C
Wind Press
QNH
hPa
Press
MSL
hPa
Rain since
9am
mm
Dir  Spd
km/h
Gust
km/h
Spd
kts
Gust
kts
17/11:30pm 15.4 10.1 8.6 64 3.5 WNW 26 44 14 24 1015.1 1015.0 0.0
17/11:00pm 15.5 11.9 10.5 72 2.6 WNW 20 32 11 17 1015.2 1015.1 0.0
17/10:30pm 15.3 11.6 10.3 72 2.6 WNW 20 32 11 17 1015.4 1015.3 0.0
17/10:00pm 16.1 11.4 7.6 57 4.2 WNW 22 39 12 21 1015.4 1015.3 0.0
17/09:30pm 15.5 12.3 10.1 70 2.8 WNW 17 26 9 14 1015.6 1015.5 0.0
17/09:00pm 15.2 11.4 9.8 70 2.8 WNW 20 32 11 17 1015.7 1015.6 0.0
17/08:30pm 15.6 11.9 9.3 66 3.2 WNW 19 30 10 16 1015.8 1015.8 0.0

Other Formats:

Comma delimited format used in spreadsheet applications
http://www.bom.gov.au/fwo/IDW60801/IDW60801.94604.axf

JavaScript Object Notation format (JSON) in row-major order
http://www.bom.gov.au/fwo/IDW60801/IDW60801.94604.json